Карточка аэропорта UAII

Внимание!
Информация на этой странице в стадии наполнения.
Если вы не увидели какой-то информации, или заметили неточность - пожалуйста сообщите нам!
Спасибо!
Команда XR-STAFF
Название аэропортаШымкент
Название аэропорта (англ.)Shymkent
Превышение1389 ft. (423.4 m.)
Координаты42°21.348', 69°28.734'
Высота перехода10000ft
Эшелон переходаFL120, QNH<733:FL130
Коды ответчика3430-3437, 3530-3537
Зона ОрВДШымкент РПИ (UAII)
Данные METARUAII 252300Z 13004MPS CAVOK 18/10 Q1009 NOSIG RMK QFE722/0962
Проноз погоды (TAF)UAII 251703Z 2518/2618 12003G08MPS 7000 SCT040 TX35/2610Z TN16/2601Z TEMPO 2518/2604 08005MPS SCT050CB BECMG 2604/2606 31003G08MPS TEMPO 2606/2618 26007G12MPS BKN040CB
NOTAMshow/hide NOTAM
AWOS   TABLE

Информация о ВПП

ВПП Длина ВПП (м.) Покрытие Курс ВПП Частота ILS
103300Железобетон106111.7
283300Железобетон286110.3

Диспетчерские позиции

Позывной Наименование органа УВД Частота
UAII_APPШымкент-Подход120.3
UAII_TWRШымкент Вышка125.9



Спутниковое изображение